createdAt,value
2017-12-31T00:00:13.914Z,99.99
2017-12-31T00:00:54.473Z,99.99
2017-12-31T00:01:35.032Z,99.99
2017-12-31T00:02:15.619Z,99.99
2017-12-31T00:02:56.162Z,99.99
2017-12-31T00:03:36.729Z,99.99
2017-12-31T00:04:17.296Z,99.99
2017-12-31T00:04:57.836Z,99.99
2017-12-31T00:05:38.380Z,99.99
2017-12-31T00:06:18.920Z,99.99
2017-12-31T00:06:59.500Z,99.99
2017-12-31T00:07:40.057Z,99.99
2017-12-31T00:08:20.616Z,99.99
2017-12-31T00:09:01.175Z,99.99
2017-12-31T00:09:41.705Z,99.99
2017-12-31T00:10:22.255Z,99.99
2017-12-31T00:11:02.809Z,99.99
2017-12-31T00:11:43.356Z,99.99
2017-12-31T00:12:23.865Z,99.99
2017-12-31T00:13:04.430Z,99.99
2017-12-31T00:13:44.963Z,99.99
2017-12-31T00:14:25.533Z,99.99
2017-12-31T00:15:06.084Z,99.99
2017-12-31T00:15:46.637Z,99.99
2017-12-31T00:16:27.203Z,99.99
2017-12-31T00:17:07.742Z,99.99
2017-12-31T00:17:48.289Z,99.99
2017-12-31T00:18:28.857Z,99.99
2017-12-31T00:19:09.381Z,99.99
2017-12-31T00:19:49.923Z,99.99
2017-12-31T00:20:30.475Z,99.99
2017-12-31T00:21:11.021Z,99.99
2017-12-31T00:21:51.572Z,99.99
2017-12-31T00:22:32.134Z,99.99
2017-12-31T00:23:12.701Z,99.99
2017-12-31T00:23:53.253Z,99.99
2017-12-31T00:24:33.825Z,99.99
2017-12-31T00:25:14.367Z,99.99
2017-12-31T00:25:54.911Z,99.99
2017-12-31T00:26:35.457Z,99.99
2017-12-31T00:27:15.999Z,99.99
2017-12-31T00:27:56.570Z,99.99
2017-12-31T00:28:37.122Z,99.99
2017-12-31T00:29:17.674Z,99.99
2017-12-31T00:29:58.228Z,99.99
2017-12-31T00:30:38.800Z,99.99
2017-12-31T00:31:19.345Z,99.99
2017-12-31T00:31:59.868Z,99.99
2017-12-31T00:32:40.435Z,99.99
2017-12-31T00:33:20.970Z,99.99
2017-12-31T00:34:01.517Z,99.99
2017-12-31T00:34:42.077Z,99.99
2017-12-31T00:35:22.639Z,99.99
2017-12-31T00:36:03.223Z,99.99
2017-12-31T00:36:43.743Z,99.99
2017-12-31T00:37:24.281Z,99.99
2017-12-31T00:38:04.829Z,99.99
2017-12-31T00:38:45.366Z,99.99
2017-12-31T00:39:25.931Z,99.99
2017-12-31T00:40:06.513Z,99.99
2017-12-31T00:40:47.054Z,99.99
2017-12-31T00:41:27.643Z,99.99
2017-12-31T00:42:08.178Z,99.99
2017-12-31T00:42:48.701Z,99.99
2017-12-31T00:43:29.248Z,99.99
2017-12-31T00:44:09.814Z,99.99
2017-12-31T00:44:50.360Z,99.99
2017-12-31T00:45:30.934Z,99.99
2017-12-31T00:46:11.463Z,99.99
2017-12-31T00:46:52.051Z,99.99
2017-12-31T00:47:32.597Z,99.99
2017-12-31T00:48:13.159Z,99.99
2017-12-31T00:48:53.702Z,99.99
2017-12-31T00:49:34.262Z,99.99
2017-12-31T00:50:14.779Z,99.99
2017-12-31T00:50:55.341Z,99.99
2017-12-31T00:51:35.903Z,99.99
2017-12-31T00:52:16.457Z,99.99
2017-12-31T00:52:57.027Z,99.99
2017-12-31T00:53:37.569Z,99.99
2017-12-31T00:54:18.133Z,99.99
2017-12-31T00:54:58.677Z,99.99
2017-12-31T00:55:39.251Z,99.99
2017-12-31T00:56:19.774Z,99.99
2017-12-31T00:57:00.328Z,99.99
2017-12-31T00:57:40.896Z,99.99
2017-12-31T00:58:21.455Z,99.99
2017-12-31T00:59:01.980Z,99.99
2017-12-31T00:59:42.536Z,99.99
2017-12-31T01:00:23.097Z,99.99
2017-12-31T01:01:03.638Z,99.99
2017-12-31T01:01:44.183Z,99.99
2017-12-31T01:02:24.726Z,99.99
2017-12-31T01:03:05.252Z,99.99
2017-12-31T01:03:45.809Z,99.99
2017-12-31T01:04:26.371Z,99.99
2017-12-31T01:05:06.898Z,99.99
2017-12-31T01:05:47.469Z,99.99
2017-12-31T01:06:28.034Z,99.99
2017-12-31T01:07:08.575Z,99.99
2017-12-31T01:07:49.133Z,99.99
2017-12-31T01:08:29.721Z,99.99
2017-12-31T01:09:10.294Z,99.99
2017-12-31T01:09:50.832Z,99.99
2017-12-31T01:10:31.372Z,99.99
2017-12-31T01:11:11.919Z,99.99
2017-12-31T01:11:52.481Z,99.99
2017-12-31T01:12:33.028Z,99.99
2017-12-31T01:13:13.563Z,99.99
2017-12-31T01:13:54.126Z,99.99
2017-12-31T01:14:34.667Z,99.99
2017-12-31T01:15:15.220Z,99.99
2017-12-31T01:15:55.769Z,99.99
2017-12-31T01:16:36.342Z,99.99
2017-12-31T01:17:16.874Z,99.99
2017-12-31T01:17:57.402Z,99.99
2017-12-31T01:18:37.956Z,99.99
2017-12-31T01:19:18.507Z,99.99
2017-12-31T01:19:59.079Z,99.99
2017-12-31T01:20:39.629Z,99.99
2017-12-31T01:21:20.168Z,99.99
2017-12-31T01:22:00.774Z,99.99
2017-12-31T01:22:41.274Z,99.99
2017-12-31T01:23:21.824Z,99.99
2017-12-31T01:24:02.384Z,99.99
2017-12-31T01:24:42.930Z,99.99
2017-12-31T01:25:23.472Z,99.99
2017-12-31T01:26:04.049Z,99.99
2017-12-31T01:26:44.604Z,99.99
2017-12-31T01:27:25.163Z,99.99
2017-12-31T01:28:05.680Z,99.99
2017-12-31T01:28:46.214Z,99.99
2017-12-31T01:29:26.753Z,99.99
2017-12-31T01:30:07.315Z,99.99
2017-12-31T01:30:47.849Z,99.99
2017-12-31T01:31:28.420Z,99.99
2017-12-31T01:32:08.971Z,99.99
2017-12-31T01:32:49.539Z,99.99
2017-12-31T01:33:30.084Z,99.99
2017-12-31T01:34:10.634Z,99.99
2017-12-31T01:34:51.184Z,99.99
2017-12-31T01:35:31.728Z,99.99
2017-12-31T01:36:12.280Z,99.99
2017-12-31T01:36:52.832Z,99.99
2017-12-31T01:37:33.379Z,99.99
2017-12-31T01:38:13.925Z,99.99
2017-12-31T01:38:54.501Z,99.99
2017-12-31T01:39:35.033Z,99.99
2017-12-31T01:40:15.576Z,99.99
2017-12-31T01:40:56.116Z,99.99
2017-12-31T01:41:36.687Z,99.99
2017-12-31T01:42:17.235Z,99.99
2017-12-31T01:42:57.771Z,99.99
2017-12-31T01:43:38.341Z,99.99
2017-12-31T01:44:18.906Z,99.99
2017-12-31T01:44:59.471Z,99.99
2017-12-31T01:45:40.029Z,99.99
2017-12-31T01:46:20.544Z,99.99
2017-12-31T01:47:01.100Z,99.24
2017-12-31T01:47:41.626Z,99.67
2017-12-31T01:48:22.177Z,99.19
2017-12-31T01:49:02.748Z,98.95
2017-12-31T01:49:43.288Z,99
2017-12-31T01:50:23.876Z,99.1
2017-12-31T01:51:04.843Z,99.1
2017-12-31T01:51:45.153Z,99.19
2017-12-31T01:52:25.743Z,99.1
2017-12-31T01:53:06.451Z,98.52
2017-12-31T01:53:46.903Z,98.28
2017-12-31T01:54:27.455Z,98.61
2017-12-31T01:55:08.143Z,97.8
2017-12-31T01:55:48.947Z,97.75
2017-12-31T01:56:29.551Z,98.24
2017-12-31T01:57:10.843Z,97.75
2017-12-31T01:57:50.706Z,98.18
2017-12-31T01:58:31.458Z,97.47
2017-12-31T01:59:12.013Z,97.66
2017-12-31T01:59:52.498Z,96.89
2017-12-31T02:00:33.077Z,96.99
2017-12-31T02:01:13.635Z,97.42
2017-12-31T02:01:54.249Z,97.56
2017-12-31T02:02:34.812Z,96.99
2017-12-31T02:03:15.367Z,97.56
2017-12-31T02:03:55.915Z,97.47
2017-12-31T02:04:36.476Z,97.56
2017-12-31T02:05:17.003Z,97.47
2017-12-31T02:05:57.552Z,97.18
2017-12-31T02:06:38.072Z,96.99
2017-12-31T02:07:18.628Z,97.33
2017-12-31T02:07:59.125Z,97.08
2017-12-31T02:08:39.664Z,97.52
2017-12-31T02:09:20.213Z,96.99
2017-12-31T02:10:00.770Z,96.89
2017-12-31T02:10:41.341Z,96.51
2017-12-31T02:11:21.883Z,96.99
2017-12-31T02:12:02.426Z,96.32
2017-12-31T02:12:43.000Z,96.66
2017-12-31T02:13:23.507Z,96.42
2017-12-31T02:14:04.051Z,96.42
2017-12-31T02:14:44.593Z,96.22
2017-12-31T02:15:25.142Z,95.98
2017-12-31T02:16:05.703Z,96.13
2017-12-31T02:16:46.216Z,95.75
2017-12-31T02:17:26.760Z,96.13
2017-12-31T02:18:07.334Z,96.32
2017-12-31T02:18:47.868Z,96.32
2017-12-31T02:19:28.433Z,96.42
2017-12-31T02:20:09.003Z,96.22
2017-12-31T02:20:49.541Z,96.51
2017-12-31T02:21:30.076Z,96.22
2017-12-31T02:22:10.656Z,96.13
2017-12-31T02:22:51.192Z,96.13
2017-12-31T02:23:31.741Z,96.13
2017-12-31T02:24:12.290Z,95.94
2017-12-31T02:24:52.828Z,96.13
2017-12-31T02:25:33.415Z,96.32
2017-12-31T02:26:13.929Z,96.47
2017-12-31T02:26:54.475Z,96.56
2017-12-31T02:27:35.042Z,96.61
2017-12-31T02:28:15.585Z,97.04
2017-12-31T02:28:56.137Z,96.7
2017-12-31T02:29:36.693Z,97.13
2017-12-31T02:30:17.248Z,97.33
2017-12-31T02:30:57.926Z,97.42
2017-12-31T02:31:38.450Z,97.52
2017-12-31T02:32:19.015Z,97.61
2017-12-31T02:32:59.660Z,97.33
2017-12-31T02:33:40.487Z,97.61
2017-12-31T02:34:21.159Z,98.09
2017-12-31T02:35:01.865Z,97.71
2017-12-31T02:35:42.416Z,97.42
2017-12-31T02:36:23.079Z,97.33
2017-12-31T02:37:03.690Z,97.9
2017-12-31T02:37:44.066Z,97.9
2017-12-31T02:38:24.637Z,98.18
2017-12-31T02:39:05.224Z,98.18
2017-12-31T02:39:45.762Z,98.18
2017-12-31T02:40:26.343Z,97.52
2017-12-31T02:41:06.878Z,97.33
2017-12-31T02:41:47.419Z,97.61
2017-12-31T02:42:27.971Z,97.52
2017-12-31T02:43:08.504Z,97.99
2017-12-31T02:43:49.034Z,97.9
2017-12-31T02:44:29.588Z,97.61
2017-12-31T02:45:10.104Z,97.52
2017-12-31T02:45:50.698Z,97.52
2017-12-31T02:46:31.244Z,97.52
2017-12-31T02:47:11.794Z,97.52
2017-12-31T02:47:52.356Z,97.56
2017-12-31T02:48:32.909Z,97.42
2017-12-31T02:49:13.462Z,97.52
2017-12-31T02:49:54.009Z,97.33
2017-12-31T02:50:35.074Z,97.42
2017-12-31T02:51:15.632Z,97.52
2017-12-31T02:51:56.305Z,97.13
2017-12-31T02:52:36.837Z,97.61
2017-12-31T02:53:17.390Z,97.42
2017-12-31T02:53:57.931Z,97.33
2017-12-31T02:54:38.475Z,97.42
2017-12-31T02:55:19.051Z,97.52
2017-12-31T02:55:59.598Z,98.09
2017-12-31T02:56:40.148Z,97.61
2017-12-31T02:57:20.685Z,97.61
2017-12-31T02:58:01.245Z,97.52
2017-12-31T02:58:41.785Z,97.23
2017-12-31T02:59:22.314Z,97.04
2017-12-31T03:00:02.844Z,97.04
2017-12-31T03:00:43.354Z,97.42
2017-12-31T03:01:23.921Z,97.71
2017-12-31T03:02:04.491Z,96.84
2017-12-31T03:02:45.052Z,96.94
2017-12-31T03:03:25.615Z,97.13
2017-12-31T03:04:06.176Z,97.52
2017-12-31T03:04:46.786Z,97.33
2017-12-31T03:05:27.327Z,97.52
2017-12-31T03:06:07.868Z,97.52
2017-12-31T03:06:48.424Z,97.13
2017-12-31T03:07:28.971Z,97.23
2017-12-31T03:08:09.522Z,97.52
2017-12-31T03:08:50.064Z,97.33
2017-12-31T03:09:30.606Z,97.61
2017-12-31T03:10:11.142Z,97.52
2017-12-31T03:10:51.695Z,98.09
2017-12-31T03:11:32.239Z,97.8
2017-12-31T03:12:12.834Z,98.09
2017-12-31T03:12:53.296Z,97.71
2017-12-31T03:13:33.845Z,98.47
2017-12-31T03:14:14.355Z,98.47
2017-12-31T03:14:54.919Z,98.57
2017-12-31T03:15:35.469Z,97.71
2017-12-31T03:16:16.016Z,97.71
2017-12-31T03:16:56.585Z,97.9
2017-12-31T03:17:37.129Z,98.57
2017-12-31T03:18:17.726Z,98.57
2017-12-31T03:18:58.218Z,98.57
2017-12-31T03:19:38.754Z,98.66
2017-12-31T03:20:19.283Z,98.66
2017-12-31T03:20:59.811Z,98.38
2017-12-31T03:21:41.175Z,99.04
2017-12-31T03:22:21.711Z,98.95
2017-12-31T03:23:02.255Z,99.62
2017-12-31T03:23:42.802Z,99.43
2017-12-31T03:24:23.358Z,99.24
2017-12-31T03:25:03.913Z,99.52
2017-12-31T03:25:44.466Z,99.9
2017-12-31T03:26:25.025Z,99.99
2017-12-31T03:27:05.568Z,99.99
2017-12-31T03:27:46.127Z,99.99
2017-12-31T03:28:26.686Z,99.99
2017-12-31T03:29:07.220Z,99.99
2017-12-31T03:29:47.785Z,99.99
2017-12-31T03:30:28.334Z,99.99
2017-12-31T03:31:08.862Z,99.99
2017-12-31T03:31:49.404Z,99.99
2017-12-31T03:32:29.949Z,99.99
2017-12-31T03:33:10.496Z,99.99
2017-12-31T03:33:51.047Z,99.99
2017-12-31T03:34:31.623Z,99.99
2017-12-31T03:35:12.159Z,99.99
2017-12-31T03:35:52.672Z,99.99
2017-12-31T03:36:33.240Z,99.99
2017-12-31T03:37:13.807Z,99.99
2017-12-31T03:37:54.364Z,99.99
2017-12-31T03:38:34.907Z,99.99
2017-12-31T03:39:15.472Z,99.99
2017-12-31T03:39:55.983Z,99.99
2017-12-31T03:40:36.534Z,99.99
2017-12-31T03:41:17.084Z,99.99
2017-12-31T03:41:57.632Z,99.99
2017-12-31T03:42:38.203Z,99.99
2017-12-31T03:43:18.754Z,99.99
2017-12-31T03:43:59.340Z,99.99
2017-12-31T03:44:39.824Z,99.99
2017-12-31T03:45:20.376Z,99.99
2017-12-31T03:46:00.947Z,99.99
2017-12-31T03:46:41.508Z,99.99
2017-12-31T03:47:22.109Z,99.99
2017-12-31T03:48:02.655Z,99.99
2017-12-31T03:48:43.206Z,99.99
2017-12-31T03:49:23.759Z,99.99
2017-12-31T03:50:04.307Z,99.99
2017-12-31T03:50:44.880Z,99.99
2017-12-31T03:51:25.407Z,99.99
2017-12-31T03:52:05.956Z,99.99
2017-12-31T03:52:46.515Z,99.99
2017-12-31T03:53:27.064Z,99.99
2017-12-31T03:54:07.603Z,99.99
2017-12-31T03:54:48.172Z,99.99
2017-12-31T03:55:28.741Z,99.99
2017-12-31T03:56:09.318Z,99.99
2017-12-31T03:56:49.866Z,99.99
2017-12-31T03:57:30.409Z,99.99
2017-12-31T03:58:10.984Z,99.99
2017-12-31T03:58:51.536Z,99.99
2017-12-31T03:59:32.088Z,99.99
2017-12-31T04:00:12.642Z,99.99
2017-12-31T04:00:53.199Z,99.99
2017-12-31T04:01:33.756Z,99.99
2017-12-31T04:02:14.268Z,99.99
2017-12-31T04:02:54.829Z,99.99
2017-12-31T04:03:35.385Z,99.99
2017-12-31T04:04:15.926Z,99.99
2017-12-31T04:04:56.479Z,99.99
2017-12-31T04:05:37.024Z,99.99
2017-12-31T04:06:17.587Z,99.99
2017-12-31T04:06:58.123Z,99.99
2017-12-31T04:07:38.664Z,99.99
2017-12-31T04:08:19.242Z,99.99
2017-12-31T04:08:59.761Z,99.99
2017-12-31T04:09:40.338Z,99.99
2017-12-31T04:10:20.913Z,99.99
2017-12-31T04:11:01.438Z,99.99
2017-12-31T04:11:41.970Z,99.99
2017-12-31T04:12:22.516Z,99.99
2017-12-31T04:13:03.068Z,99.99
2017-12-31T04:13:43.610Z,99.81
2017-12-31T04:14:24.166Z,99.81
2017-12-31T04:15:04.722Z,99.24
2017-12-31T04:15:45.271Z,98.95
2017-12-31T04:16:25.836Z,98.85
2017-12-31T04:17:06.384Z,99.04
2017-12-31T04:17:46.960Z,99.62
2017-12-31T04:18:27.462Z,98.95
2017-12-31T04:19:07.995Z,99.43
2017-12-31T04:19:48.541Z,99.14
2017-12-31T04:20:29.107Z,99.33
2017-12-31T04:21:09.666Z,99.14
2017-12-31T04:21:50.223Z,99.04
2017-12-31T04:22:30.901Z,99.14
2017-12-31T04:23:11.402Z,99.62
2017-12-31T04:23:51.910Z,98.66
2017-12-31T04:24:32.451Z,98.85
2017-12-31T04:25:12.980Z,99.14
2017-12-31T04:25:53.554Z,99.04
2017-12-31T04:26:34.152Z,98.66
2017-12-31T04:27:14.636Z,98.38
2017-12-31T04:27:55.170Z,98.47
2017-12-31T04:28:35.720Z,98.57
2017-12-31T04:29:16.344Z,98.57
2017-12-31T04:29:56.807Z,98.28
2017-12-31T04:30:37.350Z,98.47
2017-12-31T04:31:17.909Z,98.47
2017-12-31T04:31:58.432Z,98.28
2017-12-31T04:32:38.975Z,98.66
2017-12-31T04:33:19.532Z,98.28
2017-12-31T04:34:00.056Z,98.28
2017-12-31T04:34:40.622Z,98.57
2017-12-31T04:35:21.173Z,98.47
2017-12-31T04:36:01.736Z,98.57
2017-12-31T04:36:42.288Z,98.57
2017-12-31T04:37:22.845Z,98.85
2017-12-31T04:38:03.424Z,97.8
2017-12-31T04:38:43.955Z,98.47
2017-12-31T04:39:24.507Z,98.57
2017-12-31T04:40:05.065Z,98.57
2017-12-31T04:40:45.611Z,98.28
2017-12-31T04:41:26.172Z,98.28
2017-12-31T04:42:06.723Z,97.8
2017-12-31T04:42:47.318Z,98.85
2017-12-31T04:43:27.809Z,97.99
2017-12-31T04:44:08.366Z,97.8
2017-12-31T04:44:48.998Z,97.99
2017-12-31T04:45:29.484Z,98.38
2017-12-31T04:46:10.075Z,98.09
2017-12-31T04:46:50.601Z,98.09
2017-12-31T04:47:31.169Z,97.42
2017-12-31T04:48:11.724Z,97.71
2017-12-31T04:48:52.283Z,98.18
2017-12-31T04:49:32.778Z,97.9
2017-12-31T04:50:13.309Z,98.09
2017-12-31T04:50:53.836Z,97.71
2017-12-31T04:51:34.413Z,97.52
2017-12-31T04:52:15.008Z,97.42
2017-12-31T04:52:55.543Z,97.13
2017-12-31T04:53:36.028Z,97.61
2017-12-31T04:54:16.565Z,97.42
2017-12-31T04:54:57.122Z,97.52
2017-12-31T04:55:37.653Z,97.23
2017-12-31T04:56:18.229Z,97.04
2017-12-31T04:56:58.741Z,96.18
2017-12-31T04:57:39.440Z,97.04
2017-12-31T04:58:19.962Z,96.37
2017-12-31T04:59:00.464Z,96.37
2017-12-31T04:59:41.005Z,96.27
2017-12-31T05:00:21.553Z,96.27
2017-12-31T05:01:02.093Z,96.66
2017-12-31T05:01:42.582Z,96.47
2017-12-31T05:02:23.140Z,96.37
2017-12-31T05:03:03.739Z,96.94
2017-12-31T05:03:44.313Z,96.56
2017-12-31T05:04:24.803Z,97.04
2017-12-31T05:05:05.291Z,97.04
2017-12-31T05:05:45.865Z,96.56
2017-12-31T05:06:26.412Z,96.27
2017-12-31T05:07:06.956Z,96.47
2017-12-31T05:07:47.499Z,97.33
2017-12-31T05:08:28.067Z,96.27
2017-12-31T05:09:08.641Z,96.66
2017-12-31T05:09:49.135Z,96.56
2017-12-31T05:10:29.709Z,96.37
2017-12-31T05:11:10.252Z,96.56
2017-12-31T05:11:50.827Z,96.56
2017-12-31T05:12:31.378Z,96.75
2017-12-31T05:13:11.906Z,96.08
2017-12-31T05:13:52.514Z,96.37
2017-12-31T05:14:33.009Z,96.27
2017-12-31T05:15:13.541Z,96.66
2017-12-31T05:15:54.105Z,96.47
2017-12-31T05:16:34.681Z,96.66
2017-12-31T05:17:15.216Z,96.75
2017-12-31T05:17:55.786Z,96.37
2017-12-31T05:18:36.343Z,96.27
2017-12-31T05:19:16.919Z,96.37
2017-12-31T05:19:57.414Z,96.37
2017-12-31T05:20:37.974Z,96.56
2017-12-31T05:21:18.542Z,96.47
2017-12-31T05:21:59.076Z,96.56
2017-12-31T05:22:39.660Z,96.56
2017-12-31T05:23:20.186Z,96.47
2017-12-31T05:24:00.739Z,96.47
2017-12-31T05:24:41.300Z,96.75
2017-12-31T05:25:21.924Z,96.56
2017-12-31T05:26:02.462Z,96.56
2017-12-31T05:26:43.091Z,96.56
2017-12-31T05:27:23.652Z,96.56
2017-12-31T05:28:04.170Z,96.66
2017-12-31T05:28:44.712Z,96.56
2017-12-31T05:29:25.277Z,96.47
2017-12-31T05:30:05.828Z,97.33
2017-12-31T05:30:46.383Z,96.08
2017-12-31T05:31:26.935Z,96.18
2017-12-31T05:32:07.462Z,97.13
2017-12-31T05:32:47.986Z,96.94
2017-12-31T05:33:28.483Z,97.13
2017-12-31T05:34:09.033Z,97.13
2017-12-31T05:34:49.639Z,96.56
2017-12-31T05:35:30.221Z,96.37
2017-12-31T05:36:10.879Z,96.37
2017-12-31T05:36:51.484Z,96.37
2017-12-31T05:37:32.027Z,96.66
2017-12-31T05:38:12.575Z,96.47
2017-12-31T05:38:53.158Z,96.56
2017-12-31T05:39:33.655Z,96.08
2017-12-31T05:40:14.208Z,96.37
2017-12-31T05:40:54.732Z,96.66
2017-12-31T05:41:35.297Z,96.56
2017-12-31T05:42:15.854Z,96.94
2017-12-31T05:42:56.403Z,96.37
2017-12-31T05:43:36.947Z,96.37
2017-12-31T05:44:17.489Z,95.7
2017-12-31T05:44:58.023Z,95.89
2017-12-31T05:45:38.567Z,95.51
2017-12-31T05:46:19.122Z,95.32
2017-12-31T05:47:00.571Z,96.18
2017-12-31T05:47:41.135Z,96.56
2017-12-31T05:48:21.692Z,96.27
2017-12-31T05:49:02.239Z,96.27
2017-12-31T05:49:42.805Z,96.37
2017-12-31T05:50:23.361Z,96.27
2017-12-31T05:51:03.923Z,96.37
2017-12-31T05:51:44.460Z,96.18
2017-12-31T05:52:25.008Z,96.37
2017-12-31T05:53:05.558Z,96.08
2017-12-31T05:53:46.069Z,96.47
2017-12-31T05:54:26.632Z,95.89
2017-12-31T05:55:07.187Z,95.36
2017-12-31T05:55:47.742Z,95.32
2017-12-31T05:56:28.324Z,95.61
2017-12-31T05:57:08.860Z,95.36
2017-12-31T05:57:49.425Z,95.61
2017-12-31T05:58:29.952Z,94.93
2017-12-31T05:59:10.511Z,95.12
2017-12-31T05:59:51.063Z,94.84
2017-12-31T06:00:31.597Z,95.32
2017-12-31T06:01:12.143Z,94.93
2017-12-31T06:01:52.706Z,94.74
2017-12-31T06:02:33.253Z,95.03
2017-12-31T06:03:13.808Z,94.98
2017-12-31T06:03:54.356Z,95.12
2017-12-31T06:04:34.913Z,95.32
2017-12-31T06:05:15.482Z,94.93
2017-12-31T06:05:56.010Z,95.12
2017-12-31T06:06:36.564Z,95.22
2017-12-31T06:07:17.110Z,95.41
2017-12-31T06:07:57.651Z,95.03
2017-12-31T06:08:38.184Z,95.03
2017-12-31T06:09:18.764Z,94.46
2017-12-31T06:09:59.307Z,94.74
2017-12-31T06:10:39.864Z,94.74
2017-12-31T06:11:20.419Z,94.55
2017-12-31T06:12:00.972Z,94.74
2017-12-31T06:12:41.518Z,94.46
2017-12-31T06:13:22.079Z,94.55
2017-12-31T06:14:02.620Z,94.74
2017-12-31T06:14:43.171Z,94.84
2017-12-31T06:15:23.723Z,94.93
2017-12-31T06:16:04.293Z,94.36
2017-12-31T06:16:44.812Z,94.89
2017-12-31T06:17:25.371Z,94.22
2017-12-31T06:18:05.939Z,94.46
2017-12-31T06:18:46.478Z,94.46
2017-12-31T06:19:27.024Z,94.65
2017-12-31T06:20:07.569Z,94.07
2017-12-31T06:20:48.129Z,94.55
2017-12-31T06:21:28.659Z,93.84
2017-12-31T06:22:09.223Z,94.22
2017-12-31T06:22:49.781Z,94.22
2017-12-31T06:23:30.331Z,94.7
2017-12-31T06:24:10.861Z,94.89
2017-12-31T06:24:51.417Z,94.41
2017-12-31T06:25:31.961Z,94.41
2017-12-31T06:26:12.516Z,94.89
2017-12-31T06:26:53.061Z,94.7
2017-12-31T06:27:33.614Z,94.89
2017-12-31T06:28:14.179Z,94.79
2017-12-31T06:28:54.760Z,94.6
2017-12-31T06:29:35.284Z,94.79
2017-12-31T06:30:15.843Z,94.79
2017-12-31T06:30:56.363Z,94.79
2017-12-31T06:31:36.929Z,94.31
2017-12-31T06:32:17.464Z,94.31
2017-12-31T06:32:58.011Z,94.41
2017-12-31T06:33:38.585Z,94.12
2017-12-31T06:34:19.136Z,94.22
2017-12-31T06:34:59.677Z,94.6
2017-12-31T06:35:40.247Z,93.74
2017-12-31T06:36:20.782Z,94.02
2017-12-31T06:37:01.334Z,94.31
2017-12-31T06:37:41.891Z,93.93
2017-12-31T06:38:22.447Z,94.12
2017-12-31T06:39:02.980Z,94.12
2017-12-31T06:39:43.535Z,94.12
2017-12-31T06:40:24.097Z,94.51
2017-12-31T06:41:04.650Z,93.74
2017-12-31T06:41:45.199Z,94.12
2017-12-31T06:42:25.749Z,94.02
2017-12-31T06:43:06.303Z,94.02
2017-12-31T06:43:46.839Z,93.93
2017-12-31T06:44:27.393Z,93.93
2017-12-31T06:45:07.946Z,94.22
2017-12-31T06:45:48.486Z,94.02
2017-12-31T06:46:29.038Z,94.22
2017-12-31T06:47:09.561Z,93.65
2017-12-31T06:47:50.114Z,93.55
2017-12-31T06:48:30.666Z,93.65
2017-12-31T06:49:11.220Z,93.45
2017-12-31T06:49:51.788Z,93.55
2017-12-31T06:50:32.337Z,93.65
2017-12-31T06:51:12.911Z,93.26
2017-12-31T06:51:53.490Z,93.36
2017-12-31T06:52:34.024Z,93.45
2017-12-31T06:53:14.595Z,93.21
2017-12-31T06:53:55.166Z,93.12
2017-12-31T06:54:35.686Z,92.83
2017-12-31T06:55:16.240Z,93.02
2017-12-31T06:55:56.773Z,92.54
2017-12-31T06:56:37.334Z,92.45
2017-12-31T06:57:17.871Z,92.07
2017-12-31T06:57:58.432Z,91.97
2017-12-31T06:58:38.978Z,92.35
2017-12-31T06:59:19.518Z,92.16
2017-12-31T07:00:00.126Z,91.88
2017-12-31T07:00:40.652Z,92.25
2017-12-31T07:01:21.206Z,91.49
2017-12-31T07:02:01.769Z,91.68
2017-12-31T07:02:42.297Z,91.78
2017-12-31T07:03:22.855Z,91.78
2017-12-31T07:04:03.399Z,91.88
2017-12-31T07:04:43.958Z,91.25
2017-12-31T07:05:24.494Z,91.68
2017-12-31T07:06:05.039Z,91.39
2017-12-31T07:06:45.602Z,91.49
2017-12-31T07:07:26.175Z,91.59
2017-12-31T07:08:06.756Z,91.68
2017-12-31T07:08:47.291Z,91.97
2017-12-31T07:09:27.828Z,91.02
2017-12-31T07:10:08.372Z,91.11
2017-12-31T07:10:48.944Z,91.88
2017-12-31T07:11:29.489Z,91.49
2017-12-31T07:12:10.056Z,91.02
2017-12-31T07:12:50.590Z,90.73
2017-12-31T07:13:31.162Z,91.68
2017-12-31T07:14:11.709Z,91.25
2017-12-31T07:14:52.242Z,91.39
2017-12-31T07:15:32.775Z,91.78
2017-12-31T07:16:13.334Z,91.2
2017-12-31T07:16:53.859Z,91.2
2017-12-31T07:17:34.436Z,90.92
2017-12-31T07:18:14.994Z,91.11
2017-12-31T07:18:55.557Z,91.39
2017-12-31T07:19:36.108Z,91.49
2017-12-31T07:20:16.624Z,91.68
2017-12-31T07:20:57.182Z,91.68
2017-12-31T07:21:37.735Z,90.53
2017-12-31T07:22:18.309Z,91.11
2017-12-31T07:22:58.861Z,90.92
2017-12-31T07:23:39.431Z,91.11
2017-12-31T07:24:19.965Z,90.92
2017-12-31T07:25:00.530Z,90.73
2017-12-31T07:25:41.086Z,90.92
2017-12-31T07:26:21.636Z,90.73
2017-12-31T07:27:02.196Z,91.2
2017-12-31T07:27:42.740Z,90.34
2017-12-31T07:28:23.297Z,90.44
2017-12-31T07:29:03.832Z,89.96
2017-12-31T07:29:44.383Z,90.53
2017-12-31T07:30:24.937Z,90.06
2017-12-31T07:31:05.505Z,89.77
2017-12-31T07:31:46.058Z,90.06
2017-12-31T07:32:26.590Z,90.16
2017-12-31T07:33:07.139Z,89.87
2017-12-31T07:33:47.654Z,89.77
2017-12-31T07:34:28.211Z,89.96
2017-12-31T07:35:08.765Z,89.58
2017-12-31T07:35:49.299Z,89.77
2017-12-31T07:36:29.853Z,89.96
2017-12-31T07:37:11.151Z,89.92
2017-12-31T07:37:51.714Z,89.34
2017-12-31T07:38:32.276Z,89.1
2017-12-31T07:39:12.853Z,89.01
2017-12-31T07:39:53.429Z,89.39
2017-12-31T07:40:34.027Z,89.67
2017-12-31T07:41:14.638Z,89.48
2017-12-31T07:41:55.188Z,89.48
2017-12-31T07:42:35.737Z,89.58
2017-12-31T07:43:16.339Z,89.39
2017-12-31T07:43:56.818Z,88.81
2017-12-31T07:44:37.407Z,89.1
2017-12-31T07:45:17.927Z,88.81
2017-12-31T07:45:58.453Z,88.62
2017-12-31T07:46:39.012Z,89.01
2017-12-31T07:47:19.563Z,88.15
2017-12-31T07:48:00.119Z,88.34
2017-12-31T07:48:40.663Z,87.66
2017-12-31T07:49:21.265Z,87.66
2017-12-31T07:50:01.834Z,87.38
2017-12-31T07:50:42.389Z,87.57
2017-12-31T07:51:22.921Z,87.57
2017-12-31T07:52:03.451Z,87.76
2017-12-31T07:52:44.004Z,87.57
2017-12-31T07:53:24.549Z,87.57
2017-12-31T07:54:05.090Z,87.29
2017-12-31T07:54:45.668Z,87.38
2017-12-31T07:55:26.265Z,87
2017-12-31T07:56:06.838Z,87
2017-12-31T07:56:47.398Z,87.29
2017-12-31T07:57:27.941Z,86.9
2017-12-31T07:58:09.147Z,86.8
2017-12-31T07:58:49.712Z,87.09
2017-12-31T07:59:30.258Z,86.9
2017-12-31T08:00:10.800Z,87.38
2017-12-31T08:00:51.358Z,87.38
2017-12-31T08:01:31.954Z,87.76
2017-12-31T08:02:12.526Z,88.15
2017-12-31T08:02:53.078Z,87.76
2017-12-31T08:03:33.638Z,87.48
2017-12-31T08:04:14.217Z,87
2017-12-31T08:04:54.757Z,86.61
2017-12-31T08:05:35.794Z,86.9
2017-12-31T08:06:16.332Z,87.19
2017-12-31T08:06:56.886Z,86.71
2017-12-31T08:07:37.429Z,86.71
2017-12-31T08:08:17.991Z,86.61
2017-12-31T08:08:58.543Z,86.43
2017-12-31T08:09:39.071Z,86.71
2017-12-31T08:10:19.609Z,86.71
2017-12-31T08:11:00.130Z,86.43
2017-12-31T08:11:40.688Z,86.14
2017-12-31T08:12:21.216Z,86.43
2017-12-31T08:13:01.761Z,86.14
2017-12-31T08:13:42.292Z,86.43
2017-12-31T08:14:22.831Z,86.52
2017-12-31T08:15:03.394Z,86.14
2017-12-31T08:15:43.948Z,86.23
2017-12-31T08:16:24.504Z,86.33
2017-12-31T08:17:05.076Z,86.66
2017-12-31T08:17:45.637Z,85.75
2017-12-31T08:18:26.211Z,85.99
2017-12-31T08:19:06.782Z,85.71
2017-12-31T08:19:47.339Z,85.89
2017-12-31T08:20:27.900Z,85.61
2017-12-31T08:21:08.492Z,85.51
2017-12-31T08:21:49.021Z,85.85
2017-12-31T08:22:30.122Z,85.51
2017-12-31T08:23:10.676Z,85.41
2017-12-31T08:23:51.230Z,85.71
2017-12-31T08:24:31.786Z,85.89
2017-12-31T08:25:12.330Z,85.8
2017-12-31T08:25:52.849Z,84.65
2017-12-31T08:26:33.435Z,84.65
2017-12-31T08:27:13.923Z,84.84
2017-12-31T08:27:54.482Z,85.03
2017-12-31T08:28:35.423Z,84.65
2017-12-31T08:29:16.025Z,85.03
2017-12-31T08:29:56.599Z,85.03
2017-12-31T08:30:37.140Z,83.98
2017-12-31T08:31:17.707Z,84.46
2017-12-31T08:31:58.238Z,83.79
2017-12-31T08:32:38.772Z,83.98
2017-12-31T08:33:19.316Z,83.89
2017-12-31T08:33:59.852Z,83.31
2017-12-31T08:34:40.398Z,83.5
2017-12-31T08:35:20.949Z,83.6
2017-12-31T08:36:01.494Z,84.36
2017-12-31T08:36:42.035Z,84.46
2017-12-31T08:37:22.587Z,83.89
2017-12-31T08:38:03.155Z,84.08
2017-12-31T08:38:43.718Z,84.17
2017-12-31T08:39:24.302Z,83.79
2017-12-31T08:40:04.885Z,84.27
2017-12-31T08:40:45.428Z,83.69
2017-12-31T08:41:25.985Z,83.69
2017-12-31T08:42:06.544Z,83.31
2017-12-31T08:42:47.170Z,83.31
2017-12-31T08:43:27.662Z,83.4